Cànoves i Samalús





Hora UTC 19:50
Temperatura 19.5 ºC
Humitat 76.4 %
Pressió 1018.5 hPa
Pluja 0.0 mm
Velocitat vent 5.8 km/h
Direcció vent NNW
Radiació solar 0.1 W/m²

Dades diàries 2022-08-19



Hora UTC (hivern +1h; estiu +2h)
Temperatura (ºC) Humitat (%) Pressió (hPa) Velocitat vent (km/h) Precipitació (mm) Radiació solar (W/m²)
Hora UTC Aire Humitat Pressió Vel. Dir. Vel. Max Dir. Intent. màx 5 min. Rad. Sol.
00:05 13.9 96.2 1016.0 4.8 NNW 4.8 NNW 0.0 0.1
00:10 13.9 96.4 1016.0 5.0 NNW 7.1 NNW 0.0 0.1
00:15 14.0 96.5 1015.9 5.5 NNW 8.8 NNW 0.0 0.1
00:20 14.0 96.2 1015.9 4.6 NNW 9.2 NNW 0.0 0.1
00:25 13.9 95.8 1015.9 4.1 NW 6.7 NNW 0.0 0.1
00:30 13.8 95.7 1015.9 5.0 NNW 8.1 NW 0.0 0.1
00:35 13.8 95.7 1015.9 2.6 NNW 7.4 NW 0.0 0.1
00:40 13.8 95.6 1015.9 4.0 NNW 7.1 NW 0.0 0.1
00:45 13.7 95.4 1015.8 4.9 NW 9.5 NW 0.0 0.1
00:50 13.8 95.2 1015.8 5.6 NNW 9.5 NNW 0.0 0.1
00:55 13.7 94.4 1015.8 4.7 NW 8.1 NNW 0.0 0.1
01:00 13.7 93.8 1015.7 4.5 NNW 7.8 NNW 0.0 0.1
01:05 13.7 94.0 1015.6 4.8 NNW 6.7 NNW 0.0 0.1
01:10 13.7 93.7 1015.6 4.1 NW 7.1 NNW 0.0 0.1
01:15 13.6 93.4 1015.6 3.5 NNW 7.1 N 0.0 0.1
01:20 13.5 93.4 1015.6 3.4 NW 7.4 NW 0.0 0.1
01:25 13.6 93.7 1015.5 4.7 NW 9.2 N 0.0 0.1
01:30 13.5 93.6 1015.4 1.2 NW 2.5 NW 0.0 0.1
01:35 13.6 93.4 1015.5 3.4 NNW 6.4 NNW 0.0 0.1
01:40 13.7 92.9 1015.5 3.3 NNW 6.7 NNW 0.0 0.1
01:45 13.7 92.6 1015.5 2.7 NNW 5.3 N 0.0 0.1
01:50 13.7 93.1 1015.5 5.6 NW 9.2 NW 0.0 0.1
01:55 13.9 92.6 1015.6 5.2 NNW 7.8 NNW 0.0 0.1
02:00 13.9 92.2 1015.6 3.8 NNW 6.0 NNW 0.0 0.1
02:05 13.9 92.3 1015.6 2.3 NNW 4.2 NW 0.0 0.1
02:10 13.8 92.1 1015.6 4.6 NW 9.2 NW 0.0 0.1
02:15 14.0 92.3 1015.6 6.3 NNW 8.5 NNW 0.0 0.1
02:20 14.0 92.8 1015.5 5.7 NNW 8.1 NW 0.0 0.1
02:25 14.0 93.0 1015.5 4.5 NNW 7.8 NNW 0.0 0.1
02:30 13.9 92.8 1015.6 3.6 NNW 10.6 NNW 0.0 0.1
02:35 13.7 93.0 1015.6 2.6 NW 4.9 NW 0.0 0.1
02:40 13.7 93.2 1015.7 3.9 NW 9.5 NNW 0.0 0.1
02:45 13.7 93.4 1015.7 4.4 N 9.2 NNW 0.0 0.1
02:50 13.7 93.2 1015.6 3.9 NNW 7.1 N 0.0 0.1
02:55 13.6 92.9 1015.7 3.0 NW 7.1 NW 0.0 0.1
03:00 13.5 93.2 1015.7 3.3 NW 6.7 NW 0.0 0.1
03:05 13.5 93.6 1015.7 1.8 NW 4.2 NW 0.0 0.1
03:10 13.4 93.6 1015.7 3.5 NW 6.4 NW 0.0 0.1
03:15 13.4 94.3 1015.7 5.3 NNW 7.1 NNW 0.0 0.1
03:20 13.4 94.7 1015.6 5.1 NNW 7.4 NNW 0.0 0.1
03:25 13.3 94.3 1015.7 2.0 SE 3.9 SE 0.0 0.1
03:30 13.2 94.4 1015.7 0.4 N 3.2 N 0.0 0.1
03:35 13.1 94.8 1015.8 3.0 NNW 5.3 NNW 0.0 0.1
03:40 13.1 95.1 1015.8 4.6 NW 7.1 NW 0.0 0.1
03:45 13.3 95.4 1015.9 5.0 NNW 8.5 NNW 0.0 0.1
03:50 13.3 94.8 1015.9 2.9 N 5.3 N 0.0 0.1
03:55 13.2 94.6 1016.0 3.0 NNW 6.0 NNW 0.0 0.1
04:00 13.4 95.1 1016.0 5.4 NNW 7.1 NNW 0.0 0.1
04:05 13.4 95.1 1016.0 5.2 NNW 7.1 NNW 0.0 0.1
04:10 13.3 94.8 1016.0 6.0 N 9.5 N 0.0 0.1
04:15 13.5 94.2 1016.0 5.1 NNW 7.1 NNW 0.0 0.1
04:20 13.5 93.5 1016.0 5.2 NNW 6.4 0.0 0.1
04:25 13.5 93.4 1016.0 3.7 NNW 5.6 NNW 0.0 0.1
04:30 13.4 93.2 1016.1 4.1 N 13.1 N 0.0 0.1
04:35 13.5 92.1 1016.2 5.6 NW 11.3 NNW 0.0 0.1
04:40 13.9 89.1 1016.2 3.9 NNW 7.1 WNW 0.0 0.1
04:45 14.0 89.2 1016.2 3.4 NNW 8.8 N 0.0 0.2
04:50 13.9 89.6 1016.3 2.6 N 7.8 NNW 0.0 0.6
04:55 13.8 89.6 1016.4 3.0 NW 5.6 WNW 0.0 1.4
05:00 13.7 90.6 1016.4 3.9 NW 5.6 NNW 0.0 2.6
05:05 13.7 90.5 1016.4 4.2 NW 6.4 NW 0.0 4.0
05:10 13.7 90.7 1016.5 4.4 NW 6.0 NNW 0.0 5.7
05:15 13.7 91.1 1016.5 6.0 NNW 7.8 NNW 0.0 7.7
05:20 13.7 91.1 1016.5 4.1 NNW 6.4 NNW 0.0 9.6
05:25 13.6 90.8 1016.6 4.9 NNW 8.8 NNW 0.0 11.5
05:30 13.7 90.7 1016.7 3.7 NNW 6.0 NNE 0.0 14.2
05:35 13.7 89.9 1016.7 1.4 NNE 3.9 N 0.0 16.6
05:40 13.8 90.2 1016.8 0.2 NNE 2.8 NNE 0.0 18.6
05:45 13.8 90.9 1016.9 0.8 WNW 2.5 NNE 0.0 20.3
05:50 13.9 90.9 1016.9 2.3 N 5.3 N 0.0 22.2
05:55 13.9 90.9 1016.9 3.4 N 5.3 NNW 0.0 49.0
06:00 14.1 90.8 1016.9 4.0 N 5.6 N 0.0 128.7
06:05 14.2 91.0 1016.9 3.1 N 5.3 N 0.0 142.5
06:10 14.3 90.9 1017.0 1.2 N 3.2 N 0.0 155.6
06:15 14.5 90.8 1017.0 2.6 N 4.6 N 0.0 167.8
06:20 14.7 88.6 1017.1 5.0 N 6.7 N 0.0 139.8
06:25 15.1 87.4 1017.2 4.1 N 5.6 N 0.0 160.7
06:30 15.3 87.4 1017.3 3.3 N 4.9 N 0.0 71.3
06:35 15.6 86.8 1017.3 1.1 N 3.5 N 0.0 31.8
06:40 16.1 86.5 1017.4 4.0 N 6.4 N 0.0 35.9
06:45 16.4 84.7 1017.4 3.5 N 4.9 N 0.0 37.6
06:50 16.6 83.0 1017.5 1.9 N 5.6 N 0.0 33.6
06:55 17.0 85.1 1017.5 1.5 NE 3.9 ENE 0.0 56.5
07:00 17.1 81.5 1017.4 2.5 N 4.9 NNW 0.0 33.8
07:05 17.4 79.9 1017.5 2.4 NNE 4.9 N 0.0 34.4
07:10 17.7 78.4 1017.5 3.4 NNE 6.7 NNE 0.0 35.0
07:15 18.0 76.8 1017.5 4.3 N 6.7 N 0.0 35.5
07:20 18.2 74.2 1017.5 1.9 N 4.9 NNW 0.0 40.7
07:25 18.4 72.7 1017.5 0.0 NNE 0.0 NNW 0.0 56.0
07:30 18.7 72.5 1017.5 1.0 SE 3.5 SW 0.0 179.1
07:35 19.5 67.6 1017.6 2.0 S 4.9 SSW 0.0 146.3
07:40 20.1 64.9 1017.6 2.7 S 6.0 ESE 0.0 418.7
07:45 20.5 64.0 1017.6 2.7 SE 6.0 ESE 0.0 437.9
07:50 20.8 66.6 1017.7 4.4 ESE 7.1 SE 0.0 452.5
07:55 21.0 65.8 1017.7 4.5 SSE 6.7 SE 0.0 466.8
08:00 21.0 65.7 1017.6 4.7 SSE 7.4 SE 0.0 481.0
08:05 21.3 65.7 1017.6 5.0 SSE 7.8 SSE 0.0 495.3
08:10 21.6 63.7 1017.7 6.1 SSE 10.6 SSE 0.0 508.9
08:15 21.9 66.3 1017.7 5.8 SE 9.9 SE 0.0 523.3
08:20 22.0 62.6 1017.7 5.2 ESE 8.5 ESE 0.0 537.2
08:25 22.1 61.4 1017.8 4.0 ESE 9.9 SE 0.0 550.9
08:30 22.4 60.9 1017.9 5.6 SE 9.9 SSE 0.0 564.1
08:35 22.5 60.8 1017.9 6.0 SE 11.6 SE 0.0 577.4
08:40 22.5 59.7 1017.9 4.2 SSE 9.9 SSE 0.0 590.7
08:45 22.7 60.8 1017.9 4.8 SE 9.5 SE 0.0 603.2
08:50 22.9 60.5 1017.9 4.6 SE 9.2 ESE 0.0 615.0
08:55 23.2 59.5 1017.8 5.8 SE 9.9 E 0.0 628.2
09:00 23.2 59.0 1017.8 7.4 ESE 15.2 ESE 0.0 590.0
09:05 23.3 57.7 1017.8 6.8 SSE 10.9 SSE 0.0 652.0
09:10 23.5 58.1 1017.8 4.9 SSE 7.8 SSE 0.0 663.3
09:15 24.0 55.6 1017.8 4.2 S 8.5 SSE 0.0 676.0
09:20 24.0 53.9 1017.8 8.2 SE 13.1 SE 0.0 687.5
09:25 24.1 53.0 1017.8 8.0 SE 14.1 SE 0.0 697.1
09:30 24.3 53.4 1017.8 7.4 SE 10.6 SSE 0.0 708.1
09:35 24.3 50.6 1017.8 4.6 SE 9.2 SE 0.0 718.3
09:40 24.4 49.5 1017.8 7.3 SE 12.0 SSE 0.0 728.9
09:45 24.5 48.8 1017.8 7.7 ESE 12.0 ESE 0.0 738.9
09:50 24.8 48.7 1017.8 5.3 ESE 10.9 ESE 0.0 747.9
09:55 25.1 46.5 1017.8 7.1 SE 11.6 SE 0.0 757.3
10:00 25.3 48.1 1017.8 5.2 SE 13.8 SE 0.0 765.0
10:05 25.5 47.4 1017.8 5.7 SSE 12.4 SE 0.0 773.1
10:10 25.6 48.9 1017.8 5.2 SSE 8.8 E 0.0 781.6
10:15 25.6 47.2 1017.7 5.5 S 13.4 SE 0.0 789.1
10:20 25.7 47.0 1017.7 6.6 SE 13.1 SE 0.0 795.1
10:25 25.7 46.9 1017.7 6.8 ESE 10.9 SE 0.0 802.0
10:30 26.0 47.1 1017.7 7.9 SSE 13.4 SSE 0.0 809.0
10:35 26.1 46.8 1017.7 9.1 SE 15.9 SE 0.0 814.0
10:40 26.3 47.1 1017.6 8.2 SSE 15.5 SSE 0.0 821.0
10:45 25.9 45.6 1017.6 6.0 SSE 14.8 SSE 0.0 826.0
10:50 26.0 46.6 1017.6 7.6 SE 13.4 SE 0.0 830.0
10:55 26.2 46.0 1017.6 5.0 SE 10.6 SE 0.0 835.0
11:00 26.6 44.1 1017.6 6.0 S 11.3 SSW 0.0 840.0
11:05 26.4 44.9 1017.6 5.2 SSE 11.6 S 0.0 843.0
11:10 26.5 44.4 1017.5 7.5 S 14.1 S 0.0 847.0
11:15 26.8 45.5 1017.5 7.9 S 14.1 S 0.0 848.0
11:20 26.8 44.0 1017.5 10.7 ESE 19.8 E 0.0 852.0
11:25 26.9 44.0 1017.5 10.2 SE 19.8 ESE 0.0 855.0
11:30 27.1 43.5 1017.5 8.2 SSE 16.2 SE 0.0 858.0
11:35 27.3 42.7 1017.5 7.2 S 14.5 ESE 0.0 860.0
11:40 27.2 42.5 1017.4 8.7 SSE 15.2 S 0.0 862.0
11:45 27.3 42.3 1017.4 9.6 SSE 17.3 SSE 0.0 860.0
11:50 27.4 42.0 1017.4 8.9 SSE 15.9 SSW 0.0 859.0
11:55 27.5 41.2 1017.4 8.8 S 17.6 SSE 0.0 862.0
12:00 27.3 41.9 1017.4 7.2 SSW 14.8 S 0.0 860.0
12:05 27.6 40.8 1017.4 3.4 SSW 9.5 SSE 0.0 861.0
12:10 27.6 41.1 1017.3 8.8 SSE 17.6 SSE 0.0 859.0
12:15 27.8 41.2 1017.4 7.5 SSE 16.6 ESE 0.0 855.0
12:20 28.0 41.2 1017.3 8.2 SE 17.3 S 0.0 855.0
12:25 28.1 43.7 1017.3 8.0 SSE 14.8 ESE 0.0 852.0
12:30 27.8 45.2 1017.3 9.5 SE 16.9 ESE 0.0 846.0
12:35 27.7 45.6 1017.2 10.5 ESE 17.6 ESE 0.0 846.0
12:40 27.6 45.9 1017.2 11.5 SSE 18.7 SE 0.0 842.0
12:45 27.6 46.5 1017.2 10.1 SE 18.4 SE 0.0 835.0
12:50 27.9 46.0 1017.2 7.1 SE 16.9 SE 0.0 831.0
12:55 27.9 45.4 1017.2 11.2 SSE 18.4 SSE 0.0 827.0
13:00 28.0 44.9 1017.2 11.2 SE 19.4 SE 0.0 759.9
13:05 27.9 44.6 1017.2 9.3 SE 16.9 S 0.0 822.0
13:10 27.9 45.4 1017.1 11.2 SE 24.0 ESE 0.0 811.0
13:15 27.8 45.1 1017.2 10.4 SSE 16.6 SSE 0.0 806.0
13:20 27.7 47.1 1017.2 11.0 S 19.1 SSW 0.0 804.0
13:25 27.6 49.1 1017.2 11.8 SSE 21.2 SSE 0.0 799.0
13:30 27.3 50.6 1017.2 12.5 SSE 22.6 SE 0.0 791.6
13:35 27.5 51.2 1017.2 11.6 SSE 21.5 SSE 0.0 784.0
13:40 27.3 51.2 1017.2 11.5 SSE 21.5 SSE 0.0 774.0
13:45 27.4 50.8 1017.2 9.4 SSE 16.9 SE 0.0 765.7
13:50 27.5 50.6 1017.2 10.6 SSE 21.5 ESE 0.0 752.5
13:55 27.5 50.6 1017.2 9.7 SSE 18.0 S 0.0 742.6
14:00 27.2 49.8 1017.2 11.5 S 22.9 SSE 0.0 734.9
14:05 26.9 51.2 1017.3 12.8 SE 21.5 SSE 0.0 725.1
14:10 26.8 50.8 1017.3 12.7 SE 24.7 SE 0.0 714.4
14:15 26.7 51.7 1017.3 7.9 ESE 15.9 SE 0.0 703.4
14:20 27.1 51.2 1017.2 9.4 SSE 16.6 SE 0.0 692.9
14:25 27.1 51.0 1017.3 10.3 SE 19.4 ESE 0.0 681.7
14:30 27.0 50.7 1017.3 9.5 SSE 19.4 SSE 0.0 672.0
14:35 26.9 51.1 1017.3 6.5 SE 11.3 SE 0.0 660.3
14:40 26.9 51.1 1017.3 9.1 SSE 16.6 SSE 0.0 648.5
14:45 26.9 51.7 1017.2 7.3 SE 12.4 SE 0.0 638.3
14:50 27.2 50.6 1017.2 8.9 SE 13.4 S 0.0 626.5
14:55 27.0 51.7 1017.1 10.9 SE 22.2 SE 0.0 612.8
15:00 27.0 52.0 1017.1 8.5 SSE 17.3 S 0.0 599.1
15:05 26.9 51.9 1017.1 12.2 SE 20.1 SE 0.0 589.9
15:10 26.8 52.6 1017.1 7.3 SSE 20.1 SE 0.0 576.5
15:15 27.3 52.9 1017.1 9.4 ESE 16.6 SSE 0.0 563.2
15:20 27.0 52.1 1017.1 9.8 S 17.6 S 0.0 552.4
15:25 27.0 53.7 1017.1 6.7 S 15.5 SE 0.0 540.4
15:30 26.9 53.3 1017.1 7.8 S 14.8 SW 0.0 526.5
15:35 26.9 53.7 1017.1 9.2 SSE 15.9 SSE 0.0 512.5
15:40 26.5 55.0 1017.1 9.1 SSE 18.4 SSE 0.0 498.3
15:45 26.6 55.0 1017.1 9.4 SE 17.6 SE 0.0 483.7
15:50 26.5 55.0 1017.1 8.8 S 16.2 SE 0.0 469.0
15:55 26.3 54.9 1017.1 8.6 S 19.8 S 0.0 454.5
16:00 26.5 54.7 1017.1 8.2 SSE 13.8 SE 0.0 442.9
16:05 26.3 54.0 1017.1 9.7 SSE 16.6 SSE 0.0 428.7
16:10 26.1 53.6 1017.1 10.5 SE 16.6 SE 0.0 412.9
16:15 26.1 53.5 1017.1 8.6 SSE 15.9 SSE 0.0 398.3
16:20 25.8 53.5 1017.1 9.2 SSE 15.5 SE 0.0 383.4
16:25 25.7 54.0 1017.2 11.1 SE 20.5 SE 0.0 366.5
16:30 25.6 52.8 1017.2 10.1 SSE 23.3 SE 0.0 352.1
16:35 25.4 52.3 1017.2 7.7 SSE 12.7 S 0.0 335.9
16:40 25.4 52.5 1017.2 6.5 SSE 12.7 SSW 0.0 320.5
16:45 25.5 52.2 1017.3 6.1 S 13.1 S 0.0 306.2
16:50 25.3 52.3 1017.3 8.2 SSE 14.8 SE 0.0 289.4
16:55 25.1 52.5 1017.3 8.2 SSE 13.4 SE 0.0 272.5
17:00 25.0 52.4 1017.3 5.4 SSE 8.8 S 0.0 257.4
17:05 25.1 52.4 1017.3 5.2 SSE 9.5 S 0.0 240.0
17:10 25.1 52.1 1017.3 6.0 SSE 8.8 SSE 0.0 225.6
17:15 25.0 52.7 1017.2 6.8 SSE 12.7 SSE 0.0 209.9
17:20 24.9 53.1 1017.3 5.4 SSE 8.5 SSE 0.0 195.1
17:25 24.8 53.4 1017.2 5.8 SSE 9.5 SE 0.0 179.2
17:30 24.8 53.3 1017.2 4.4 SE 8.5 S 0.0 165.7
17:35 24.8 53.5 1017.2 4.2 SSE 10.9 SE 0.0 153.1
17:40 24.7 53.7 1017.2 3.4 SSE 6.4 ESE 0.0 130.5
17:45 24.5 53.4 1017.2 3.8 SSE 8.1 S 0.0 33.0
17:50 24.2 54.6 1017.3 3.2 SSE 6.0 SSE 0.0 27.2
17:55 24.0 55.6 1017.3 1.8 S 4.6 SSE 0.0 25.7
18:00 23.7 56.1 1017.4 3.3 SSW 7.4 S 0.0 23.6
18:05 23.5 57.1 1017.4 2.4 S 3.9 S 0.0 21.5
18:10 23.3 58.1 1017.4 0.6 S 3.9 SSE 0.0 19.5
18:15 23.1 61.4 1017.4 1.3 NNW 4.6 N 0.0 17.5
18:20 22.8 62.8 1017.5 2.1 NNW 5.3 N 0.0 15.3
18:25 22.5 64.3 1017.6 2.6 NNW 5.6 NNW 0.0 13.0
18:30 22.3 65.1 1017.7 2.3 NNW 5.3 NE 0.0 10.9
18:35 22.0 66.4 1017.8 2.1 NW 4.2 NW 0.0 8.6
18:40 21.7 67.4 1017.8 2.4 NW 3.9 NW 0.0 6.4
18:45 21.5 68.4 1017.9 2.8 NNW 4.9 NNW 0.0 4.3
18:50 21.3 68.9 1017.9 3.9 NNW 7.1 NW 0.0 2.7
18:55 21.1 69.8 1018.0 4.2 NNW 7.1 N 0.0 1.6
19:00 20.9 70.1 1018.0 4.6 NNW 7.1 NNW 0.0 0.8
19:05 20.8 70.9 1018.1 4.1 NNW 7.1 NNW 0.0 0.4
19:10 20.6 71.8 1018.1 2.7 NNW 6.0 NNE 0.0 0.2
19:15 20.4 72.4 1018.1 2.4 NW 4.9 N 0.0 0.1
19:20 20.2 73.6 1018.2 0.9 NW 2.8 WNW 0.0 0.1
19:25 20.0 74.4 1018.2 1.3 NNW 2.8 N 0.0 0.1
19:30 19.8 75.1 1018.3 2.0 NNW 5.3 N 0.0 0.1
19:35 19.7 74.9 1018.4 2.9 WNW 6.4 WNW 0.0 0.1
19:40 19.7 75.7 1018.5 1.9 N 4.9 N 0.0 0.1
19:45 19.6 76.2 1018.5 4.3 NNW 7.4 NNW 0.0 0.1
19:50 19.5 76.4 1018.5 5.8 NNW 9.9 NNW 0.0 0.1
Màxima 28.2 96.5 1018.5 12.8 SE 24.7 SE 0.0 862.0
Mínima 13.0 40.8 1015.4
Total 0.0